Time;durP1;ratioP1;P1;durP2;ratioP2;P2;SDS_P1;SDS_P2;PMS_P1;PMS_P2;Temp;Humidity;BMP_temperature;BMP_pressure;BME280_temperature;BME280_humidity;BME280_pressure;Samples;Min_cycle;Max_cycle;Signal;HPM_P1;HPM_P2
2022/04/03 00:02:06;;;;;;;15.30;8.90;;;;;;;4.85;66.17;98894.75;4491005;31;33524;-84
2022/04/03 00:04:33;;;;;;;12.98;7.97;;;;;;;4.43;67.98;98892.69;4479135;31;33186;-85
2022/04/03 00:07:02;;;;;;;13.75;8.35;;;;;;;4.38;68.32;98894.59;4480274;31;33290;-85
2022/04/03 00:09:29;;;;;;;13.20;8.05;;;;;;;4.50;67.82;98893.31;4477194;31;33100;-85
2022/04/03 00:14:50;;;;;;;12.23;8.02;;;;;;;4.52;67.32;98902.00;4494061;31;34329;-84
2022/04/03 00:17:18;;;;;;;15.88;8.98;;;;;;;4.50;67.68;98903.78;4477154;31;33166;-85
2022/04/03 00:19:46;;;;;;;16.60;8.85;;;;;;;4.58;67.41;98904.37;4481940;31;33331;-85
2022/04/03 00:22:14;;;;;;;11.57;7.25;;;;;;;4.35;68.21;98905.16;4485283;31;32798;-85
2022/04/03 00:24:41;;;;;;;11.98;8.80;;;;;;;4.40;68.33;98905.00;4460268;31;33849;-85
2022/04/03 00:27:09;;;;;;;14.00;8.13;;;;;;;4.33;68.58;98912.19;4478770;31;34357;-84
2022/04/03 00:29:37;;;;;;;15.30;8.35;;;;;;;4.20;69.00;98910.87;4479602;31;33575;-84
2022/04/03 00:32:06;;;;;;;15.07;8.82;;;;;;;4.14;68.94;98911.94;4478280;31;34526;-84
2022/04/03 00:34:34;;;;;;;13.68;7.87;;;;;;;4.03;69.33;98919.22;4491236;31;33810;-84
2022/04/03 00:37:01;;;;;;;12.25;6.30;;;;;;;4.25;68.55;98915.03;4479649;31;32636;-84
2022/04/03 00:39:30;;;;;;;15.18;7.28;;;;;;;3.96;69.83;98918.56;4480980;31;32414;-84
2022/04/03 00:41:57;;;;;;;12.18;7.03;;;;;;;3.70;70.44;98927.19;4466760;31;33528;-84
2022/04/03 00:44:27;;;;;;;11.82;7.70;;;;;;;4.21;68.87;98923.88;4494172;31;33553;-84
2022/04/03 00:46:55;;;;;;;13.50;7.55;;;;;;;4.36;68.30;98918.16;4480974;31;33176;-84
2022/04/03 00:49:23;;;;;;;15.55;8.63;;;;;;;4.42;67.77;98927.56;4465507;31;32269;-83
2022/04/03 00:51:50;;;;;;;12.70;7.97;;;;;;;4.28;68.52;98930.62;4478578;31;33384;-83
2022/04/03 00:54:18;;;;;;;11.93;7.53;;;;;;;4.07;69.33;98931.28;4478541;31;33256;-83
2022/04/03 00:56:47;;;;;;;16.27;7.70;;;;;;;4.35;68.27;98934.75;4468921;31;33793;-84
2022/04/03 00:59:15;;;;;;;15.73;7.90;;;;;;;4.10;68.99;98933.81;4491734;31;33724;-85
2022/04/03 01:01:43;;;;;;;11.70;7.22;;;;;;;4.00;69.97;98935.03;4475101;31;33291;-85
2022/04/03 01:04:11;;;;;;;12.13;7.35;;;;;;;4.17;68.96;98937.94;4491721;31;33614;-85
2022/04/03 01:06:39;;;;;;;15.00;8.02;;;;;;;3.85;69.94;98946.78;4492297;31;33802;-85
2022/04/03 01:09:07;;;;;;;14.70;8.40;;;;;;;4.23;68.89;98947.38;4477941;31;33616;-85
2022/04/03 01:11:36;;;;;;;12.60;8.18;;;;;;;4.18;68.73;98950.13;4481232;31;32761;-85
2022/04/03 01:14:04;;;;;;;12.95;7.55;;;;;;;3.82;70.30;98957.31;4492950;31;34765;-85
2022/04/03 01:16:33;;;;;;;15.43;8.38;;;;;;;3.97;69.73;98950.78;4491326;31;32991;-85
2022/04/03 01:19:03;;;;;;;12.40;7.05;;;;;;;3.96;69.74;98959.53;4493173;31;33291;-85
2022/04/03 01:21:31;;;;;;;14.93;7.55;;;;;;;3.66;70.91;98962.16;4490549;31;34436;-85
2022/04/03 01:23:59;;;;;;;15.80;8.23;;;;;;;3.87;70.44;98959.78;4478387;31;34284;-86
2022/04/03 01:26:28;;;;;;;12.85;7.78;;;;;;;3.71;71.01;98964.63;4478040;31;34553;-86
2022/04/03 01:28:56;;;;;;;15.07;8.60;;;;;;;4.04;70.23;98963.63;4479814;31;33357;-87
2022/04/03 01:31:24;;;;;;;13.25;8.23;;;;;;;4.03;70.04;98968.84;4477867;31;34536;-87
2022/04/03 01:33:52;;;;;;;11.65;7.25;;;;;;;4.01;70.02;98968.06;4493395;31;33378;-87
2022/04/03 01:36:20;;;;;;;13.85;8.15;;;;;;;4.30;69.39;98960.16;4489931;31;33759;-86
2022/04/03 01:38:47;;;;;;;16.70;8.63;;;;;;;4.24;69.15;98970.81;4490040;31;33092;-85
2022/04/03 01:41:15;;;;;;;13.62;7.53;;;;;;;4.32;68.73;98963.63;4492521;31;33778;-86
2022/04/03 01:43:43;;;;;;;12.75;7.10;;;;;;;4.45;68.35;98973.66;4478024;31;33591;-86
2022/04/03 01:46:12;;;;;;;15.05;8.52;;;;;;;4.42;68.51;98973.78;4495149;31;33067;-85
2022/04/03 01:48:40;;;;;;;12.18;8.48;;;;;;;4.68;67.86;98976.38;4464112;31;33907;-84
2022/04/03 01:51:07;;;;;;;13.77;8.38;;;;;;;4.67;67.56;98979.91;4490138;31;33474;-84
2022/04/03 01:53:35;;;;;;;13.50;7.82;;;;;;;4.88;66.61;98973.09;4469796;31;32913;-84
2022/04/03 01:56:05;;;;;;;13.88;8.43;;;;;;;5.00;65.92;98985.78;4489209;31;34403;-85
2022/04/03 01:58:34;;;;;;;14.30;8.55;;;;;;;4.91;66.19;98996.53;4488821;31;33493;-88
2022/04/03 02:01:04;;;;;;;13.38;8.45;;;;;;;4.55;67.30;98995.97;4493211;31;34424;-88
2022/04/03 02:03:32;;;;;;;14.27;7.75;;;;;;;4.54;67.81;98989.91;4464367;31;32784;-88
2022/04/03 02:06:00;;;;;;;14.45;8.57;;;;;;;4.38;68.29;98999.16;4464379;31;33203;-88
2022/04/03 02:08:28;;;;;;;17.00;8.57;;;;;;;4.40;68.52;99004.31;4468366;31;34011;-88
2022/04/03 02:10:56;;;;;;;14.32;7.82;;;;;;;4.60;68.30;99001.91;4476140;31;32158;-87
2022/04/03 02:13:24;;;;;;;17.50;7.97;;;;;;;4.95;66.67;99005.16;4477596;31;33248;-89
2022/04/03 02:15:52;;;;;;;14.87;9.20;;;;;;;4.73;67.31;99005.00;4478365;31;33966;-88
2022/04/03 02:18:19;;;;;;;15.57;8.38;;;;;;;4.56;68.06;99014.25;4479119;31;33292;-88
2022/04/03 02:20:47;;;;;;;16.17;8.20;;;;;;;4.40;68.67;98996.47;4466797;31;32520;-88
2022/04/03 02:23:16;;;;;;;17.25;9.07;;;;;;;4.46;68.76;99002.34;4463427;31;33197;-88
2022/04/03 02:25:43;;;;;;;14.65;8.80;;;;;;;4.41;68.41;99003.41;4475898;31;33138;-87
2022/04/03 02:28:12;;;;;;;12.07;6.53;;;;;;;4.40;68.82;99007.78;4474280;31;32430;-85
2022/04/03 02:30:39;;;;;;;10.32;6.65;;;;;;;4.40;68.59;99012.16;4478234;31;33572;-85
2022/04/03 02:33:07;;;;;;;10.95;6.60;;;;;;;4.59;66.90;99008.06;4491417;31;36038;-85
2022/04/03 02:35:35;;;;;;;11.05;7.00;;;;;;;4.46;67.67;99014.56;4492204;31;33577;-85
2022/04/03 02:38:02;;;;;;;10.38;5.93;;;;;;;4.47;68.06;99013.69;4491538;31;32640;-84
2022/04/03 02:40:30;;;;;;;11.57;6.32;;;;;;;4.75;66.52;99013.66;4488896;31;33771;-84
2022/04/03 02:42:58;;;;;;;8.77;6.00;;;;;;;4.81;66.32;99019.53;4493160;31;34414;-84
2022/04/03 02:45:26;;;;;;;9.52;5.55;;;;;;;4.35;67.63;99026.22;4489912;31;33163;-84
2022/04/03 02:47:55;;;;;;;9.15;6.18;;;;;;;4.41;67.33;99029.53;4490352;31;34088;-84
2022/04/03 02:50:26;;;;;;;8.77;5.97;;;;;;;4.58;67.19;99025.50;4490682;31;33554;-84
2022/04/03 02:52:55;;;;;;;11.38;5.95;;;;;;;4.58;67.12;99032.50;4487143;31;33282;-84
2022/04/03 02:55:24;;;;;;;7.45;5.05;;;;;;;4.23;69.09;99044.06;4479671;31;34944;-84
2022/04/03 02:57:52;;;;;;;9.63;5.37;;;;;;;4.34;68.57;99039.34;4464137;32;32986;-85
2022/04/03 03:00:21;;;;;;;10.38;5.72;;;;;;;4.64;67.15;99037.53;4474776;31;33544;-84
2022/04/03 03:02:49;;;;;;;10.20;5.22;;;;;;;4.60;67.13;99048.97;4474946;31;33843;-85
2022/04/03 03:05:17;;;;;;;10.02;5.37;;;;;;;4.29;68.53;99051.69;4486302;31;33493;-84
2022/04/03 03:07:46;;;;;;;7.28;4.97;;;;;;;4.62;67.59;99050.66;4476674;31;32389;-84
2022/04/03 03:10:16;;;;;;;9.60;4.90;;;;;;;4.70;67.14;99057.38;4491651;31;34491;-85
2022/04/03 03:12:47;;;;;;;7.05;4.37;;;;;;;4.63;67.06;99054.97;4474009;31;34758;-84
2022/04/03 03:15:15;;;;;;;6.83;3.97;;;;;;;4.41;67.84;99061.75;4491690;31;34454;-85
2022/04/03 03:17:43;;;;;;;5.85;4.07;;;;;;;4.24;68.56;99071.87;4477775;31;32400;-85
2022/04/03 03:20:16;;;;;;;5.43;3.50;;;;;;;4.47;68.10;99069.44;4476709;31;32729;-85
2022/04/03 03:22:45;;;;;;;5.32;3.92;;;;;;;4.49;67.87;99074.62;4491454;31;34394;-84
2022/04/03 03:25:13;;;;;;;4.82;3.33;;;;;;;4.62;67.49;99075.94;4477701;31;32776;-84
2022/04/03 03:27:42;;;;;;;5.85;3.72;;;;;;;4.59;67.82;99083.88;4476665;31;32754;-84
2022/04/03 03:30:11;;;;;;;4.05;3.12;;;;;;;4.59;67.74;99083.88;4479572;31;32373;-84
2022/04/03 03:32:39;;;;;;;3.62;3.05;;;;;;;4.66;67.67;99088.03;4476356;31;34368;-83
2022/04/03 03:35:10;;;;;;;4.75;2.70;;;;;;;4.60;67.79;99086.47;4491490;31;34626;-84
2022/04/03 03:37:39;;;;;;;5.12;3.45;;;;;;;4.77;67.32;99095.53;4479583;31;32245;-86
2022/04/03 03:40:11;;;;;;;3.87;2.55;;;;;;;4.65;67.65;99094.13;4491852;31;33533;-86
2022/04/03 03:42:41;;;;;;;5.82;4.25;;;;;;;4.66;67.72;99097.62;4470896;31;32813;-86
2022/04/03 03:45:11;;;;;;;7.87;4.18;;;;;;;4.61;67.94;99100.41;4477998;31;34156;-86
2022/04/03 03:47:42;;;;;;;6.72;3.75;;;;;;;4.77;67.42;99106.00;4488889;31;33377;-86
2022/04/03 03:50:10;;;;;;;6.97;4.43;;;;;;;4.92;67.12;99102.03;4475847;31;34161;-86
2022/04/03 03:52:43;;;;;;;6.75;3.65;;;;;;;4.95;66.79;99108.03;4482030;31;33814;-87
2022/04/03 03:55:11;;;;;;;4.82;2.85;;;;;;;4.85;67.19;99104.84;4478673;31;33738;-87
2022/04/03 03:57:39;;;;;;;4.40;3.20;;;;;;;4.78;67.20;99116.41;4468505;31;32227;-86
2022/04/03 04:00:09;;;;;;;4.68;3.45;;;;;;;5.20;65.61;99117.69;4477308;31;32659;-86
2022/04/03 04:02:38;;;;;;;6.50;3.62;;;;;;;5.04;66.00;99128.69;4491705;31;32812;-86
2022/04/03 04:05:07;;;;;;;4.78;3.35;;;;;;;5.01;66.27;99125.28;4480211;31;33689;-84
2022/04/03 04:07:45;;;;;;;5.80;3.42;;;;;;;5.10;65.83;99130.22;4463957;32;32800;-84
2022/04/03 04:10:16;;;;;;;5.28;3.87;;;;;;;4.93;66.49;99140.37;4489482;31;34408;-84
2022/04/03 04:12:45;;;;;;;4.90;3.42;;;;;;;4.76;67.17;99141.75;4477653;31;33425;-83
2022/04/03 04:15:14;;;;;;;6.32;4.32;;;;;;;4.96;66.52;99142.91;4501007;31;34568;-84
2022/04/03 04:17:44;;;;;;;6.00;3.53;;;;;;;5.06;66.05;99144.31;4464564;31;31827;-84
2022/04/03 04:20:13;;;;;;;5.93;3.85;;;;;;;5.06;66.00;99139.94;4496145;31;33417;-84
2022/04/03 04:22:43;;;;;;;5.97;3.85;;;;;;;4.74;67.32;99154.00;4494426;31;34082;-84
2022/04/03 04:25:14;;;;;;;5.00;3.20;;;;;;;4.85;66.83;99157.16;4491858;31;33177;-85
2022/04/03 04:27:43;;;;;;;5.68;3.78;;;;;;;4.83;66.87;99158.97;4480741;31;31806;-84
2022/04/03 04:30:13;;;;;;;4.03;3.12;;;;;;;5.02;66.40;99167.09;4466460;31;32768;-84
2022/04/03 04:32:41;;;;;;;4.25;3.33;;;;;;;4.95;66.62;99176.06;4491773;31;33540;-84
2022/04/03 04:35:09;;;;;;;5.53;3.70;;;;;;;5.10;66.12;99177.34;4490467;31;34044;-84
2022/04/03 04:37:37;;;;;;;5.62;3.60;;;;;;;4.93;66.62;99177.00;4464757;31;32637;-84
2022/04/03 04:40:05;;;;;;;4.30;3.35;;;;;;;4.82;67.20;99182.56;4490961;31;32545;-84
2022/04/03 04:42:33;;;;;;;4.45;3.50;;;;;;;4.78;67.40;99192.25;4478098;31;34690;-85
2022/04/03 04:45:02;;;;;;;5.25;4.10;;;;;;;4.86;67.25;99195.50;4465047;31;32830;-85
2022/04/03 04:47:34;;;;;;;6.40;3.87;;;;;;;4.95;66.95;99198.75;4479518;31;32610;-85
2022/04/03 04:50:09;;;;;;;;;;;;;;;4.98;66.89;99206.47;4489773;31;33426;-85
2022/04/03 04:52:39;;;;;;;5.43;3.53;;;;;;;4.96;66.98;99210.91;4491178;31;34929;-85
2022/04/03 04:55:08;;;;;;;7.03;4.12;;;;;;;4.92;67.27;99209.28;4478092;31;33709;-85
2022/04/03 04:57:37;;;;;;;6.53;4.45;;;;;;;4.91;67.25;99218.06;4491015;31;33451;-85
2022/04/03 05:00:09;;;;;;;4.72;3.25;;;;;;;5.02;66.91;99215.97;4489368;31;33715;-85
2022/04/03 05:02:37;;;;;;;6.68;4.12;;;;;;;5.00;67.23;99217.78;4491518;31;34698;-85
2022/04/03 05:05:06;;;;;;;5.65;3.45;;;;;;;4.93;67.36;99222.31;4477225;31;32318;-85
2022/04/03 05:07:34;;;;;;;5.07;3.70;;;;;;;4.98;67.08;99224.78;4474801;31;31754;-85
2022/04/03 05:10:04;;;;;;;5.00;3.12;;;;;;;5.03;66.84;99229.00;4477714;31;32458;-85
2022/04/03 05:12:37;;;;;;;5.82;4.22;;;;;;;4.97;67.28;99238.78;4481004;31;34273;-85
2022/04/03 05:15:09;;;;;;;8.30;3.87;;;;;;;4.92;67.20;99238.06;4492628;31;33578;-85
2022/04/03 05:17:39;;;;;;;5.03;3.05;;;;;;;4.95;67.49;99235.38;4466364;31;32207;-85
2022/04/03 05:20:07;;;;;;;5.75;3.45;;;;;;;5.02;67.33;99239.50;4468014;31;33138;-85
2022/04/03 05:22:35;;;;;;;5.40;3.35;;;;;;;4.99;67.55;99239.63;4475896;31;34400;-85
2022/04/03 05:25:04;;;;;;;5.12;3.25;;;;;;;5.01;67.31;99250.88;4480496;31;33561;-86
2022/04/03 05:27:32;;;;;;;5.15;2.72;;;;;;;5.16;66.96;99254.78;4477017;31;32321;-85
2022/04/03 05:30:01;;;;;;;6.32;3.33;;;;;;;5.23;66.50;99254.56;4477771;31;34049;-85
2022/04/03 05:32:29;;;;;;;3.42;2.50;;;;;;;5.22;66.45;99260.72;4480629;31;32728;-86
2022/04/03 05:34:59;;;;;;;5.07;2.97;;;;;;;5.01;67.09;99263.97;4477750;31;34186;-86
2022/04/03 05:37:27;;;;;;;4.97;2.97;;;;;;;5.11;66.75;99265.41;4490892;31;32836;-87
2022/04/03 05:39:56;;;;;;;4.57;3.55;;;;;;;4.91;67.53;99273.00;4490130;31;34168;-87
2022/04/03 05:42:24;;;;;;;3.37;2.92;;;;;;;5.09;67.12;99280.31;4475685;31;33661;-87
2022/04/03 05:44:51;;;;;;;4.65;3.35;;;;;;;5.21;66.84;99279.06;4476200;31;33231;-87
2022/04/03 05:47:19;;;;;;;4.05;2.80;;;;;;;5.10;66.95;99282.00;4478111;31;33064;-87
2022/04/03 05:49:47;;;;;;;3.40;2.92;;;;;;;5.03;67.17;99280.47;4487874;31;34190;-86
2022/04/03 05:52:15;;;;;;;4.75;3.25;;;;;;;5.03;67.27;99281.34;4470273;31;33366;-86
2022/04/03 05:54:42;;;;;;;3.50;2.42;;;;;;;5.18;66.51;99285.25;4492426;31;34034;-86
2022/04/03 05:57:10;;;;;;;5.05;2.90;;;;;;;5.07;67.08;99292.56;4487573;31;33027;-86
2022/04/03 05:59:38;;;;;;;4.80;2.85;;;;;;;5.42;66.01;99288.03;4489335;31;33124;-85
2022/04/03 06:02:07;;;;;;;4.35;3.25;;;;;;;5.29;65.97;99291.03;4478032;31;32966;-86
2022/04/03 06:04:35;;;;;;;6.03;3.70;;;;;;;5.34;66.16;99299.59;4474407;31;36105;-85
2022/04/03 06:07:04;;;;;;;5.37;4.05;;;;;;;5.35;65.91;99300.44;4470934;31;32785;-84
2022/04/03 06:09:31;;;;;;;4.95;3.42;;;;;;;5.27;66.12;99299.81;4486151;31;33132;-84
2022/04/03 06:11:59;;;;;;;4.22;3.20;;;;;;;5.21;66.30;99308.72;4487046;31;34581;-83
2022/04/03 06:14:27;;;;;;;6.10;4.32;;;;;;;5.17;66.50;99314.94;4487990;31;34498;-83
2022/04/03 06:16:55;;;;;;;6.12;4.60;;;;;;;5.04;66.98;99314.47;4489378;31;34312;-84
2022/04/03 06:19:23;;;;;;;5.50;4.35;;;;;;;4.94;67.21;99313.00;4479923;31;33291;-83
2022/04/03 06:21:50;;;;;;;5.12;4.15;;;;;;;4.95;66.90;99319.09;4478705;31;33424;-83
2022/04/03 06:24:18;;;;;;;8.30;5.47;;;;;;;5.13;66.82;99315.94;4473260;32;32959;-83
2022/04/03 06:26:46;;;;;;;7.30;5.37;;;;;;;4.99;67.44;99318.13;4459273;31;32477;-83
2022/04/03 06:29:14;;;;;;;10.13;5.95;;;;;;;4.99;67.42;99331.19;4490982;31;34180;-83
2022/04/03 06:31:41;;;;;;;8.55;5.75;;;;;;;4.94;67.88;99333.06;4479005;31;32571;-83
2022/04/03 06:34:09;;;;;;;9.35;5.68;;;;;;;5.05;67.17;99337.09;4473446;31;32514;-84
2022/04/03 06:36:37;;;;;;;7.78;4.60;;;;;;;4.83;67.99;99341.22;4490875;31;32870;-84
2022/04/03 06:39:05;;;;;;;11.98;6.37;;;;;;;4.84;68.16;99335.06;4489841;31;33494;-84
2022/04/03 06:41:33;;;;;;;11.77;7.55;;;;;;;4.90;67.99;99341.91;4479874;31;33162;-85
2022/04/03 06:44:01;;;;;;;8.93;5.65;;;;;;;4.80;68.34;99350.00;4488469;31;33393;-85
2022/04/03 06:46:29;;;;;;;10.32;7.65;;;;;;;5.18;66.91;99352.47;4488638;31;32811;-85
2022/04/03 06:48:57;;;;;;;9.57;7.05;;;;;;;5.00;67.50;99353.84;4492750;31;34165;-85
2022/04/03 06:51:25;;;;;;;11.00;7.32;;;;;;;4.83;68.11;99368.22;4476890;31;31912;-85
2022/04/03 06:53:52;;;;;;;11.85;7.10;;;;;;;4.92;68.10;99371.50;4474865;31;33131;-85
2022/04/03 06:56:21;;;;;;;10.65;7.07;;;;;;;4.62;69.41;99379.28;4467849;31;31939;-85
2022/04/03 06:58:49;;;;;;;11.82;7.32;;;;;;;4.91;68.48;99375.03;4477643;31;33542;-82
2022/04/03 07:01:17;;;;;;;11.70;8.10;;;;;;;4.94;68.51;99374.91;4475581;31;33060;-84
2022/04/03 07:03:46;;;;;;;18.45;7.72;;;;;;;5.10;68.01;99377.06;4478976;31;33202;-81
2022/04/03 07:06:14;;;;;;;11.52;8.68;;;;;;;5.27;67.34;99376.59;4494385;31;33892;-83
2022/04/03 07:08:43;;;;;;;15.85;9.27;;;;;;;4.90;68.05;99394.25;4490875;31;33834;-83
2022/04/03 07:11:11;;;;;;;14.30;8.95;;;;;;;5.24;67.26;99384.53;4496589;31;33703;-83
2022/04/03 07:13:39;;;;;;;14.85;8.32;;;;;;;5.37;66.72;99395.53;4492415;31;33662;-83
2022/04/03 07:16:07;;;;;;;13.70;9.98;;;;;;;5.06;67.90;99400.75;4482689;31;32975;-84
2022/04/03 07:18:36;;;;;;;16.83;10.07;;;;;;;5.02;67.86;99393.88;4483133;31;32588;-83
2022/04/03 07:21:04;;;;;;;18.20;11.68;;;;;;;4.77;69.01;99410.25;4483362;31;33370;-83
2022/04/03 07:23:31;;;;;;;21.25;12.93;;;;;;;4.96;68.29;99401.91;4494378;31;34527;-83
2022/04/03 07:26:00;;;;;;;21.75;12.55;;;;;;;5.01;68.19;99413.97;4482700;31;33903;-84
2022/04/03 07:28:27;;;;;;;23.45;12.18;;;;;;;5.27;67.24;99415.88;4490790;31;32987;-83
2022/04/03 07:30:55;;;;;;;19.70;12.18;;;;;;;5.16;68.00;99424.91;4484017;31;34419;-84
2022/04/03 07:33:24;;;;;;;24.83;13.50;;;;;;;4.95;68.25;99434.22;4482587;31;33594;-84
2022/04/03 07:35:52;;;;;;;20.85;12.40;;;;;;;4.68;68.57;99441.88;4483162;31;32987;-84
2022/04/03 07:38:20;;;;;;;19.23;11.93;;;;;;;4.85;67.47;99442.31;4497002;31;34060;-83
2022/04/03 07:40:49;;;;;;;21.52;11.85;;;;;;;4.90;68.11;99446.56;4482984;31;33040;-83
2022/04/03 07:43:25;;;;;;;23.65;10.73;;;;;;;5.01;67.46;99450.59;4500015;31;32684;-83
2022/04/03 07:45:53;;;;;;;27.10;13.30;;;;;;;4.94;68.29;99458.63;4499777;31;33447;-83
2022/04/03 07:48:21;;;;;;;22.33;11.05;;;;;;;5.16;66.80;99462.41;4467499;31;33059;-83
2022/04/03 07:50:49;;;;;;;23.48;11.18;;;;;;;5.02;66.74;99467.16;4492551;31;35529;-83
2022/04/03 07:53:17;;;;;;;19.12;10.20;;;;;;;4.82;68.19;99476.38;4498842;31;33703;-83
2022/04/03 07:55:45;;;;;;;16.65;10.57;;;;;;;4.82;65.34;99475.53;4480978;31;32820;-83
2022/04/03 07:58:13;;;;;;;19.25;10.20;;;;;;;4.54;67.95;99485.81;4484218;31;32672;-83
2022/04/03 08:00:41;;;;;;;19.40;9.70;;;;;;;4.50;69.06;99485.00;4482715;31;33293;-83
2022/04/03 08:03:10;;;;;;;15.18;10.20;;;;;;;4.63;68.57;99499.50;4492799;31;32689;-83
2022/04/03 08:05:38;;;;;;;26.83;10.60;;;;;;;4.87;67.22;99484.09;4494411;31;34629;-83
2022/04/03 08:08:06;;;;;;;20.30;9.93;;;;;;;5.14;67.03;99488.63;4494111;31;32998;-85
2022/04/03 08:10:34;;;;;;;16.52;9.80;;;;;;;4.87;67.29;99495.44;4480184;31;32411;-85
2022/04/03 08:13:02;;;;;;;18.90;10.70;;;;;;;5.05;67.34;99494.09;4481829;31;33724;-85
2022/04/03 08:15:30;;;;;;;17.73;10.93;;;;;;;5.30;67.22;99499.53;4476736;31;32250;-84
2022/04/03 08:17:58;;;;;;;16.05;9.73;;;;;;;5.31;64.79;99498.63;4479211;31;32108;-84
2022/04/03 08:20:27;;;;;;;18.70;9.00;;;;;;;5.40;63.53;99506.25;4479314;31;34236;-84
2022/04/03 08:22:55;;;;;;;18.58;9.98;;;;;;;5.16;64.49;99512.13;4490562;31;34473;-84
2022/04/03 08:25:23;;;;;;;14.10;9.05;;;;;;;4.87;67.06;99518.97;4477332;32;33787;-84
2022/04/03 08:27:54;;;;;;;20.80;8.85;;;;;;;5.06;65.49;99515.91;4467083;31;32765;-84
2022/04/03 08:30:40;;;;;;;17.25;8.88;;;;;;;5.24;63.92;99514.56;4468193;31;33429;-84
2022/04/03 08:33:11;;;;;;;15.73;8.82;;;;;;;5.08;66.13;99530.66;4490626;31;33552;-83
2022/04/03 08:35:40;;;;;;;18.55;8.60;;;;;;;5.11;65.90;99527.09;4478578;31;32814;-84
2022/04/03 08:38:08;;;;;;;15.52;9.05;;;;;;;5.25;64.73;99530.22;4465099;31;32602;-83
2022/04/03 08:40:36;;;;;;;16.98;9.95;;;;;;;5.36;65.79;99536.03;4468497;31;33945;-84
2022/04/03 08:43:05;;;;;;;13.95;8.52;;;;;;;5.39;64.58;99535.94;4490003;31;34379;-84
2022/04/03 08:45:33;;;;;;;15.05;9.35;;;;;;;5.11;66.25;99540.19;4477005;31;32996;-84
2022/04/03 08:48:01;;;;;;;18.50;9.30;;;;;;;5.25;65.28;99543.31;4490305;31;33828;-85
2022/04/03 08:50:34;;;;;;;14.27;8.45;;;;;;;5.47;64.06;99537.50;4478283;31;33126;-84
2022/04/03 08:53:03;;;;;;;11.43;8.10;;;;;;;5.22;63.88;99540.78;4485499;31;33778;-84
2022/04/03 08:55:33;;;;;;;19.35;11.32;;;;;;;5.17;64.45;99540.03;4488857;31;34172;-84
2022/04/03 08:58:02;;;;;;;17.08;9.95;;;;;;;4.97;65.77;99548.38;4476457;31;34004;-85
2022/04/03 09:00:34;;;;;;;14.82;9.75;;;;;;;5.20;64.20;99550.41;4492031;31;33903;-85
2022/04/03 09:03:02;;;;;;;18.45;9.75;;;;;;;5.20;65.65;99552.19;4492962;31;33902;-86
2022/04/03 09:05:46;;;;;;;14.95;9.20;;;;;;;5.31;64.73;99550.13;4488522;31;33238;-86
2022/04/03 09:08:15;;;;;;;17.73;9.63;;;;;;;5.36;62.91;99549.13;4492336;31;33692;-86
2022/04/03 09:11:03;;;;;;;21.45;11.35;;;;;;;4.93;65.99;99548.50;4478749;31;32993;-85
2022/04/03 09:13:31;;;;;;;15.73;10.10;;;;;;;5.06;66.76;99552.53;4478867;31;33699;-85
2022/04/03 09:16:00;;;;;;;19.70;10.93;;;;;;;5.25;65.09;99553.78;4491045;31;32337;-85
2022/04/03 09:19:00;;;;;;;17.27;9.73;;;;;;;5.47;64.22;99555.84;4492376;31;33056;-85
2022/04/03 09:21:30;;;;;;;16.75;10.70;;;;;;;5.73;64.14;99555.97;4448424;31;33279;-85
2022/04/03 09:24:11;;;;;;;18.15;9.35;;;;;;;6.04;62.57;99555.16;4489445;31;32861;-85
2022/04/03 09:26:43;;;;;;;16.98;10.20;;;;;;;6.28;61.67;99559.66;4477724;31;33507;-85
2022/04/03 09:29:15;;;;;;;18.00;9.55;;;;;;;6.64;60.24;99556.78;4477597;31;33855;-85
2022/04/03 09:31:44;;;;;;;;;;;;;;;6.65;60.51;99558.53;4476660;31;33854;-85
2022/04/03 09:34:25;;;;;;;16.90;9.00;;;;;;;6.97;59.87;99557.47;4487958;31;33883;-85
2022/04/03 09:37:01;;;;;;;13.65;8.80;;;;;;;6.93;57.55;99569.88;4463194;31;32827;-84
2022/04/03 09:39:30;;;;;;;16.00;9.43;;;;;;;6.61;57.97;99575.28;4473415;31;33741;-84
2022/04/03 09:42:00;;;;;;;13.77;8.82;;;;;;;6.53;61.60;99578.12;4478410;31;33032;-82
2022/04/03 09:44:33;;;;;;;14.30;9.93;;;;;;;6.64;59.02;99576.00;4464014;31;35512;-82
2022/04/03 09:47:20;;;;;;;14.35;8.40;;;;;;;6.44;60.82;99574.94;4459945;31;33788;-82
2022/04/03 09:49:55;;;;;;;16.80;9.23;;;;;;;6.62;63.08;99579.63;4491759;31;33631;-83
2022/04/03 09:52:36;;;;;;;18.15;9.55;;;;;;;7.04;59.82;99584.41;4476899;31;33060;-82
2022/04/03 09:55:14;;;;;;;17.92;7.65;;;;;;;6.79;59.44;99585.19;4487922;31;33753;-82
2022/04/03 09:57:45;;;;;;;12.18;8.57;;;;;;;7.07;57.43;99592.16;4489330;31;32746;-82
2022/04/03 10:00:34;;;;;;;20.92;9.20;;;;;;;7.16;60.66;99597.13;4478186;31;33052;-82
2022/04/03 10:03:02;;;;;;;26.80;10.50;;;;;;;7.34;57.90;99596.50;4477460;31;33882;-82
2022/04/03 10:05:31;;;;;;;15.82;9.35;;;;;;;7.44;57.48;99590.03;4490976;31;34254;-82
2022/04/03 10:08:00;;;;;;;14.57;8.15;;;;;;;7.53;58.21;99595.88;4477750;31;32692;-82
2022/04/03 10:10:29;;;;;;;17.85;10.10;;;;;;;7.51;56.64;99593.31;4478962;31;34025;-82
2022/04/03 10:12:57;;;;;;;14.75;8.90;;;;;;;7.66;58.10;99599.81;4475406;31;32962;-82
2022/04/03 10:15:25;;;;;;;15.18;9.82;;;;;;;7.68;59.42;99600.59;4480309;31;33801;-82
2022/04/03 10:17:54;;;;;;;12.25;8.13;;;;;;;7.55;56.82;99599.28;4489270;31;33704;-83
2022/04/03 10:20:24;;;;;;;12.32;8.45;;;;;;;7.88;55.27;99602.50;4477077;31;33456;-82
2022/04/03 10:22:57;;;;;;;16.42;8.90;;;;;;;8.03;52.53;99606.38;4478133;31;34304;-83
2022/04/03 10:25:29;;;;;;;15.82;9.20;;;;;;;7.86;55.78;99610.47;4476659;31;34174;-83
2022/04/03 10:27:58;;;;;;;16.10;8.38;;;;;;;8.07;53.56;99607.97;4476338;31;33264;-82
2022/04/03 10:30:38;;;;;;;17.58;9.10;;;;;;;7.99;51.48;99620.56;4491894;31;33975;-83
2022/04/03 10:33:07;;;;;;;11.82;8.10;;;;;;;8.00;52.04;99622.25;4484237;31;34467;-83
2022/04/03 10:35:36;;;;;;;11.30;8.50;;;;;;;8.00;51.82;99617.84;4489851;31;33503;-82
2022/04/03 10:38:05;;;;;;;14.68;8.52;;;;;;;8.06;55.08;99611.50;4490048;31;33574;-82
2022/04/03 10:40:35;;;;;;;19.42;8.35;;;;;;;8.27;52.26;99610.75;4489455;31;33550;-82
2022/04/03 10:43:06;;;;;;;11.98;8.48;;;;;;;8.63;49.43;99612.91;4476515;31;33941;-82
2022/04/03 10:45:44;;;;;;;13.65;8.27;;;;;;;8.34;52.25;99622.72;4489003;31;33825;-82
2022/04/03 10:48:21;;;;;;;12.57;6.97;;;;;;;8.40;53.25;99606.78;4478251;31;33425;-82
2022/04/03 10:51:23;;;;;;;11.12;7.28;;;;;;;8.21;48.58;99621.47;4490883;31;32908;-82
2022/04/03 10:54:00;;;;;;;10.10;7.05;;;;;;;7.96;51.58;99625.00;4465589;31;33103;-82
2022/04/03 10:56:29;;;;;;;17.73;6.60;;;;;;;8.13;48.96;99620.91;4490664;31;34918;-81
2022/04/03 10:58:59;;;;;;;13.52;8.30;;;;;;;7.91;48.61;99613.78;4476543;31;34135;-82
2022/04/03 11:01:34;;;;;;;13.80;7.25;;;;;;;7.56;50.21;99616.81;4476540;31;33564;-81
2022/04/03 11:04:08;;;;;;;12.25;9.02;;;;;;;7.50;50.17;99627.50;4489750;31;33224;-82
2022/04/03 11:06:37;;;;;;;12.27;7.18;;;;;;;7.73;52.71;99629.34;4488833;31;34272;-82
2022/04/03 11:09:06;;;;;;;17.45;8.43;;;;;;;7.89;48.80;99623.50;4477611;31;32960;-82
2022/04/03 11:11:36;;;;;;;15.55;7.65;;;;;;;7.19;55.32;99628.53;4477303;31;33822;-81
2022/04/03 11:14:08;;;;;;;12.25;8.38;;;;;;;7.64;51.83;99638.41;4488954;31;33552;-82
2022/04/03 11:16:55;;;;;;;12.80;7.80;;;;;;;7.93;51.63;99637.41;4488380;31;34666;-82
2022/04/03 11:19:59;;;;;;;10.65;7.18;;;;;;;8.31;52.57;99633.41;4476436;31;33497;-82
2022/04/03 11:22:27;;;;;;;14.23;7.32;;;;;;;8.71;50.58;99629.28;4458482;31;33946;-82
2022/04/03 11:24:55;;;;;;;9.80;6.95;;;;;;;9.03;45.80;99643.81;4491279;31;34761;-82
2022/04/03 11:27:22;;;;;;;10.88;7.30;;;;;;;9.29;45.61;99640.09;4476936;31;32176;-82
2022/04/03 11:29:52;;;;;;;15.98;7.47;;;;;;;9.21;45.23;99647.50;4486020;31;33408;-82
2022/04/03 11:32:21;;;;;;;13.65;7.07;;;;;;;9.16;46.49;99650.31;4489685;31;33843;-82
2022/04/03 11:35:00;;;;;;;7.78;6.22;;;;;;;8.96;43.95;99644.97;4473948;31;32767;-82
2022/04/03 11:37:32;;;;;;;11.80;6.90;;;;;;;8.37;44.74;99646.34;4489644;31;33451;-82
2022/04/03 11:40:00;;;;;;;12.70;6.93;;;;;;;8.32;46.80;99650.87;4487936;31;33409;-81
2022/04/03 11:42:28;;;;;;;11.75;6.93;;;;;;;8.19;48.12;99654.88;4476420;31;34093;-82
2022/04/03 11:44:59;;;;;;;14.70;6.57;;;;;;;8.11;46.13;99651.66;4489300;31;32623;-82
2022/04/03 11:47:29;;;;;;;10.32;7.37;;;;;;;8.26;47.34;99658.13;4491358;31;32523;-82
2022/04/03 11:50:08;;;;;;;12.10;7.05;;;;;;;8.46;49.03;99659.16;4487579;31;33182;-82
2022/04/03 11:52:38;;;;;;;10.75;7.32;;;;;;;8.34;50.58;99663.97;4475924;31;32238;-82